createdAt,value
2018-11-02T00:01:32.996Z,8.50
2018-11-02T00:04:05.808Z,8.80
2018-11-02T00:06:34.100Z,8.50
2018-11-02T00:09:01.972Z,9.50
2018-11-02T00:11:44.125Z,8.50
2018-11-02T00:14:19.211Z,8.00
2018-11-02T00:16:47.155Z,9.27
2018-11-02T00:19:15.115Z,8.10
2018-11-02T00:21:44.752Z,8.27
2018-11-02T00:27:02.637Z,9.50
2018-11-02T00:29:31.758Z,8.20
2018-11-02T00:31:59.884Z,8.13
2018-11-02T00:37:15.321Z,8.40
2018-11-02T00:39:43.408Z,9.47
2018-11-02T00:42:11.178Z,8.53
2018-11-02T00:44:43.222Z,9.00
2018-11-02T00:47:12.010Z,8.10
2018-11-02T00:49:42.240Z,7.90
2018-11-02T00:52:10.134Z,7.57
2018-11-02T00:54:44.956Z,8.10
2018-11-02T00:57:20.396Z,8.27
2018-11-02T00:59:48.991Z,8.00
2018-11-02T01:02:19.515Z,8.10
2018-11-02T01:04:52.456Z,7.80
2018-11-02T01:07:20.888Z,7.77
2018-11-02T01:09:49.209Z,7.80
2018-11-02T01:12:17.286Z,8.17
2018-11-02T01:14:49.891Z,8.10
2018-11-02T01:17:17.646Z,8.20
2018-11-02T01:19:50.024Z,8.23
2018-11-02T01:22:22.860Z,8.90
2018-11-02T01:24:50.895Z,8.37
2018-11-02T01:27:20.270Z,7.23
2018-11-02T01:29:48.030Z,7.77
2018-11-02T01:32:16.823Z,7.10
2018-11-02T01:34:54.620Z,7.83
2018-11-02T01:37:23.463Z,7.60
2018-11-02T01:39:58.455Z,7.07
2018-11-02T01:42:26.537Z,7.33
2018-11-02T01:44:54.262Z,7.23
2018-11-02T01:47:23.263Z,6.73
2018-11-02T01:50:04.977Z,7.13
2018-11-02T01:52:32.883Z,6.73
2018-11-02T01:55:02.008Z,6.70
2018-11-02T01:57:29.792Z,6.23
2018-11-02T02:00:01.791Z,6.90
2018-11-02T02:02:31.440Z,7.47
2018-11-02T02:05:07.247Z,6.20
2018-11-02T02:07:39.534Z,6.50
2018-11-02T02:10:07.979Z,7.00
2018-11-02T02:12:35.679Z,7.23
2018-11-02T02:15:03.565Z,7.57
2018-11-02T02:17:31.572Z,5.70
2018-11-02T02:20:01.405Z,6.57
2018-11-02T02:22:29.407Z,5.80
2018-11-02T02:25:05.913Z,5.97
2018-11-02T02:27:45.422Z,6.87
2018-11-02T02:30:17.971Z,6.07
2018-11-02T02:32:45.976Z,7.00
2018-11-02T02:35:13.569Z,5.90
2018-11-02T02:37:41.582Z,6.67
2018-11-02T02:40:10.938Z,7.30
2018-11-02T02:42:39.247Z,6.47
2018-11-02T02:45:07.619Z,5.80
2018-11-02T02:47:35.572Z,6.43
2018-11-02T02:50:03.777Z,6.20
2018-11-02T02:52:31.603Z,6.50
2018-11-02T02:57:47.073Z,5.60
2018-11-02T03:00:14.940Z,6.50
2018-11-02T03:02:45.994Z,6.40
2018-11-02T03:05:20.351Z,6.73
2018-11-02T03:07:48.423Z,6.00
2018-11-02T03:10:21.716Z,7.20
2018-11-02T03:12:52.940Z,6.17
2018-11-02T03:15:20.876Z,6.20
2018-11-02T03:17:54.508Z,6.60
2018-11-02T03:20:23.621Z,6.57
2018-11-02T03:23:15.723Z,6.23
2018-11-02T03:25:43.650Z,6.53
2018-11-02T03:28:11.391Z,7.20
2018-11-02T03:30:50.016Z,7.70
2018-11-02T03:33:19.421Z,6.80
2018-11-02T03:35:50.509Z,7.77
2018-11-02T03:38:20.092Z,6.80
2018-11-02T03:40:48.094Z,6.23
2018-11-02T03:43:25.052Z,6.67
2018-11-02T03:45:54.445Z,6.10
2018-11-02T03:48:22.388Z,5.63
2018-11-02T03:50:55.428Z,6.93
2018-11-02T03:53:23.643Z,6.60
2018-11-02T03:55:58.929Z,6.80
2018-11-02T03:58:29.169Z,6.67
2018-11-02T04:01:03.834Z,6.77
2018-11-02T04:03:35.205Z,6.60
2018-11-02T04:06:03.399Z,6.60
2018-11-02T04:08:31.111Z,6.70
2018-11-02T04:10:58.769Z,6.63
2018-11-02T04:13:26.736Z,6.10
2018-11-02T04:15:54.758Z,6.33
2018-11-02T04:18:30.253Z,6.40
2018-11-02T04:21:00.515Z,6.30
2018-11-02T04:23:35.983Z,5.80
2018-11-02T04:26:05.615Z,6.30
2018-11-02T04:28:33.434Z,7.57
2018-11-02T04:31:01.403Z,5.73
2018-11-02T04:33:29.919Z,5.93
2018-11-02T04:35:58.105Z,5.90
2018-11-02T04:38:25.742Z,5.83
2018-11-02T04:40:54.749Z,6.50
2018-11-02T04:43:22.352Z,6.93
2018-11-02T04:45:50.017Z,6.30
2018-11-02T04:48:17.844Z,6.30
2018-11-02T04:50:45.827Z,7.33
2018-11-02T04:53:13.619Z,6.53
2018-11-02T04:55:41.841Z,6.57
2018-11-02T04:58:10.066Z,6.60
2018-11-02T05:00:37.786Z,6.53
2018-11-02T05:03:05.427Z,6.90
2018-11-02T05:05:34.448Z,6.87
2018-11-02T05:08:02.864Z,6.97
2018-11-02T05:10:30.862Z,7.20
2018-11-02T05:12:58.942Z,7.03
2018-11-02T05:15:27.240Z,7.17
2018-11-02T05:17:55.245Z,8.20
2018-11-02T05:20:23.760Z,7.00
2018-11-02T05:22:52.392Z,7.33
2018-11-02T05:25:21.034Z,7.50
2018-11-02T05:27:52.772Z,7.37
2018-11-02T05:30:22.013Z,7.90
2018-11-02T05:32:51.628Z,7.57
2018-11-02T05:35:21.918Z,8.33
2018-11-02T05:37:52.209Z,6.57
2018-11-02T05:40:30.445Z,8.00
2018-11-02T05:43:05.743Z,7.00
2018-11-02T05:45:40.013Z,6.90
2018-11-02T05:48:09.203Z,8.30
2018-11-02T05:50:41.040Z,8.40
2018-11-02T05:53:08.956Z,7.47
2018-11-02T05:55:36.608Z,8.20
2018-11-02T05:58:04.681Z,7.80
2018-11-02T06:00:50.308Z,7.43
2018-11-02T06:03:18.095Z,8.97
2018-11-02T06:05:51.491Z,8.20
2018-11-02T06:08:29.791Z,8.23
2018-11-02T06:10:57.579Z,7.33
2018-11-02T06:13:30.884Z,7.73
2018-11-02T06:16:19.734Z,9.10
2018-11-02T06:18:52.924Z,7.27
2018-11-02T06:21:21.541Z,7.03
2018-11-02T06:26:51.951Z,6.60
2018-11-02T06:29:19.831Z,7.70
2018-11-02T06:31:52.165Z,7.80
2018-11-02T06:37:25.825Z,9.33
2018-11-02T06:42:52.350Z,7.30
2018-11-02T06:45:20.345Z,6.73
2018-11-02T06:47:48.107Z,6.87
2018-11-02T06:50:20.877Z,6.97
2018-11-02T06:55:35.210Z,7.80
2018-11-02T06:58:03.640Z,8.00
2018-11-02T07:00:34.712Z,8.50
2018-11-02T07:03:02.601Z,7.30
2018-11-02T07:05:30.349Z,7.67
2018-11-02T07:07:59.103Z,7.73
2018-11-02T07:10:27.681Z,7.67
2018-11-02T07:12:55.656Z,7.93
2018-11-02T07:15:23.595Z,8.10
2018-11-02T07:17:51.515Z,7.60
2018-11-02T07:20:19.717Z,8.37
2018-11-02T07:22:48.044Z,7.40
2018-11-02T07:25:16.908Z,8.03
2018-11-02T07:27:44.932Z,6.60
2018-11-02T07:30:13.688Z,8.17
2018-11-02T07:32:42.070Z,7.00
2018-11-02T07:35:10.951Z,7.43
2018-11-02T07:37:40.141Z,6.47
2018-11-02T07:40:09.697Z,7.33
2018-11-02T07:42:37.699Z,7.20
2018-11-02T07:45:11.352Z,7.20
2018-11-02T07:47:40.076Z,7.40
2018-11-02T07:50:10.540Z,8.03
2018-11-02T07:52:40.031Z,7.40
2018-11-02T07:55:10.002Z,7.00
2018-11-02T07:57:38.266Z,6.93
2018-11-02T08:00:10.262Z,6.70
2018-11-02T08:02:38.724Z,6.80
2018-11-02T08:05:07.712Z,6.03
2018-11-02T08:07:37.001Z,6.10
2018-11-02T08:10:05.969Z,6.10
2018-11-02T08:12:35.543Z,5.20
2018-11-02T08:15:03.998Z,5.23
2018-11-02T08:17:32.594Z,6.70
2018-11-02T08:20:05.271Z,6.07
2018-11-02T08:22:34.008Z,5.97
2018-11-02T08:25:02.096Z,5.13
2018-11-02T08:27:30.567Z,5.10
2018-11-02T08:29:58.790Z,4.90
2018-11-02T08:32:26.695Z,5.40
2018-11-02T08:34:55.383Z,4.60
2018-11-02T08:37:23.376Z,5.90
2018-11-02T08:42:40.646Z,5.27
2018-11-02T08:45:10.306Z,4.97
2018-11-02T08:47:38.819Z,5.27
2018-11-02T08:50:08.037Z,5.53
2018-11-02T08:52:35.968Z,4.90
2018-11-02T08:55:03.960Z,4.47
2018-11-02T08:57:32.112Z,4.63
2018-11-02T09:00:01.296Z,5.07
2018-11-02T09:02:29.412Z,4.63
2018-11-02T09:05:00.231Z,5.17
2018-11-02T09:07:28.021Z,5.20
2018-11-02T09:09:57.391Z,4.80
2018-11-02T09:15:06.063Z,4.13
2018-11-02T09:17:33.931Z,4.63
2018-11-02T09:20:02.372Z,4.33
2018-11-02T09:22:32.093Z,4.30
2018-11-02T09:25:00.360Z,4.10
2018-11-02T09:27:28.164Z,4.17
2018-11-02T09:29:58.310Z,4.90
2018-11-02T09:32:27.420Z,4.60
2018-11-02T09:34:55.447Z,4.50
2018-11-02T09:37:23.606Z,4.90
2018-11-02T09:39:51.880Z,4.60
2018-11-02T09:42:20.563Z,5.23
2018-11-02T09:44:49.033Z,5.23
2018-11-02T09:47:19.357Z,5.10
2018-11-02T09:49:49.833Z,5.40
2018-11-02T09:52:21.147Z,4.80
2018-11-02T09:57:52.546Z,4.53
2018-11-02T10:00:26.942Z,4.47
2018-11-02T10:02:57.119Z,4.50
2018-11-02T10:05:27.166Z,4.30
2018-11-02T10:10:59.828Z,4.60
2018-11-02T10:13:31.040Z,4.83
2018-11-02T10:15:59.602Z,4.10
2018-11-02T10:18:28.392Z,4.03
2018-11-02T10:20:56.665Z,3.80
2018-11-02T10:23:31.250Z,4.10
2018-11-02T10:26:00.964Z,4.10
2018-11-02T10:28:36.323Z,3.43
2018-11-02T10:31:04.935Z,3.73
2018-11-02T10:33:35.256Z,3.30
2018-11-02T10:36:15.306Z,4.17
2018-11-02T10:38:46.118Z,4.20
2018-11-02T10:41:17.383Z,3.87
2018-11-02T10:43:46.308Z,4.23
2018-11-02T10:46:20.094Z,4.43
2018-11-02T10:48:48.433Z,4.30
2018-11-02T10:51:16.640Z,4.37
2018-11-02T10:53:45.845Z,4.97
2018-11-02T10:56:17.566Z,4.40
2018-11-02T10:58:46.089Z,4.57
2018-11-02T11:01:19.380Z,3.63
2018-11-02T11:03:47.244Z,4.23
2018-11-02T11:06:20.890Z,4.00
2018-11-02T11:09:01.102Z,3.73
2018-11-02T11:11:29.453Z,3.50
2018-11-02T11:13:57.429Z,3.30
2018-11-02T11:16:26.121Z,3.20
2018-11-02T11:18:55.884Z,3.90
2018-11-02T11:21:26.772Z,3.57
2018-11-02T11:23:55.245Z,3.10
2018-11-02T11:26:29.486Z,3.27
2018-11-02T11:29:02.287Z,3.33
2018-11-02T11:31:30.791Z,3.53
2018-11-02T11:33:58.584Z,3.10
2018-11-02T11:36:26.577Z,2.20
2018-11-02T11:38:54.367Z,2.70
2018-11-02T11:41:22.446Z,3.10
2018-11-02T11:43:50.275Z,2.77
2018-11-02T11:46:18.162Z,2.70
2018-11-02T11:48:45.985Z,3.10
2018-11-02T11:51:13.840Z,2.60
2018-11-02T11:53:41.586Z,2.80
2018-11-02T11:56:09.470Z,2.90
2018-11-02T11:58:37.256Z,3.03
2018-11-02T12:01:05.194Z,2.70
2018-11-02T12:03:32.983Z,2.70
2018-11-02T12:06:00.807Z,3.77
2018-11-02T12:08:30.852Z,3.13
2018-11-02T12:11:02.740Z,2.80
2018-11-02T12:13:31.688Z,3.23
2018-11-02T12:15:59.906Z,3.30
2018-11-02T12:18:27.876Z,3.13
2018-11-02T12:20:55.749Z,3.77
2018-11-02T12:23:53.974Z,3.27
2018-11-02T12:26:22.634Z,2.97
2018-11-02T12:28:50.548Z,2.50
2018-11-02T12:31:18.376Z,2.60
2018-11-02T12:33:47.148Z,2.47
2018-11-02T12:36:16.815Z,2.60
2018-11-02T12:38:44.804Z,2.83
2018-11-02T12:41:12.635Z,3.10
2018-11-02T12:43:41.601Z,2.83
2018-11-02T12:46:09.410Z,2.93
2018-11-02T12:48:37.299Z,2.60
2018-11-02T12:51:05.287Z,3.00
2018-11-02T12:53:34.121Z,3.90
2018-11-02T12:59:20.490Z,2.33
2018-11-02T13:01:49.395Z,2.70
2018-11-02T13:04:17.949Z,4.23
2018-11-02T13:06:45.850Z,3.33
2018-11-02T13:09:19.620Z,2.87
2018-11-02T13:11:47.522Z,6.77
2018-11-02T13:14:15.765Z,2.60
2018-11-02T13:16:43.652Z,3.20
2018-11-02T13:19:11.648Z,3.60
2018-11-02T13:21:40.187Z,4.17
2018-11-02T13:27:11.832Z,2.80
2018-11-02T13:29:41.605Z,2.57
2018-11-02T13:32:09.451Z,2.87
2018-11-02T13:34:41.465Z,2.37
2018-11-02T13:37:20.055Z,3.20
2018-11-02T13:39:50.177Z,2.63
2018-11-02T13:42:18.605Z,2.70
2018-11-02T13:44:52.389Z,2.97
2018-11-02T13:47:20.740Z,3.10
2018-11-02T13:50:20.073Z,3.90
2018-11-02T13:52:48.725Z,3.40
2018-11-02T13:55:17.221Z,4.80
2018-11-02T13:57:45.813Z,3.33
2018-11-02T14:00:20.042Z,2.80
2018-11-02T14:03:32.798Z,3.40
2018-11-02T14:06:13.895Z,2.40
2018-11-02T14:08:42.933Z,5.27
2018-11-02T14:14:04.761Z,2.37
2018-11-02T14:16:33.163Z,2.30
2018-11-02T14:25:03.018Z,2.93
2018-11-02T14:27:30.823Z,2.43
2018-11-02T14:29:58.716Z,2.93
2018-11-02T14:32:26.526Z,2.63
2018-11-02T14:34:54.337Z,3.43
2018-11-02T14:37:22.126Z,3.30
2018-11-02T14:39:50.604Z,4.37
2018-11-02T14:42:18.602Z,17.13
2018-11-02T14:44:49.236Z,21.63
2018-11-02T14:47:18.948Z,8.10
2018-11-02T14:49:46.718Z,3.00
2018-11-02T14:52:14.604Z,3.30
2018-11-02T14:54:44.021Z,2.60
2018-11-02T14:57:12.002Z,3.00
2018-11-02T14:59:40.132Z,2.63
2018-11-02T15:02:08.082Z,3.10
2018-11-02T15:04:36.065Z,2.70
2018-11-02T15:07:04.102Z,3.30
2018-11-02T15:12:27.105Z,3.53
2018-11-02T15:14:57.331Z,3.20
2018-11-02T15:17:25.027Z,2.67
2018-11-02T15:19:52.893Z,3.37
2018-11-02T15:22:31.451Z,2.57
2018-11-02T15:25:05.158Z,3.20
2018-11-02T15:27:33.835Z,2.73
2018-11-02T15:30:01.776Z,3.90
2018-11-02T15:32:38.426Z,3.70
2018-11-02T15:35:07.244Z,3.90
2018-11-02T15:37:36.037Z,3.00
2018-11-02T15:40:05.716Z,3.90
2018-11-02T15:42:50.573Z,3.17
2018-11-02T15:45:18.694Z,3.10
2018-11-02T15:47:50.291Z,3.10
2018-11-02T15:50:26.882Z,2.97
2018-11-02T15:52:55.007Z,3.57
2018-11-02T15:58:12.918Z,4.13
2018-11-02T16:00:40.674Z,3.37
2018-11-02T16:03:08.695Z,3.13
2018-11-02T16:05:37.560Z,3.00
2018-11-02T16:08:17.905Z,2.80
2018-11-02T16:10:46.071Z,3.90
2018-11-02T16:13:14.171Z,3.70
2018-11-02T16:15:42.067Z,3.70
2018-11-02T16:18:09.899Z,3.53
2018-11-02T16:20:37.911Z,4.23
2018-11-02T16:23:18.775Z,4.93
2018-11-02T16:25:46.608Z,6.33
2018-11-02T16:28:15.290Z,5.30
2018-11-02T16:30:43.092Z,4.90
2018-11-02T16:33:11.617Z,4.90
2018-11-02T16:35:39.508Z,4.60
2018-11-02T16:38:07.362Z,4.90
2018-11-02T16:40:35.144Z,5.33
2018-11-02T16:43:03.038Z,4.80
2018-11-02T16:48:35.557Z,5.50
2018-11-02T16:51:03.452Z,6.30
2018-11-02T16:53:31.335Z,6.00
2018-11-02T16:55:59.458Z,5.20
2018-11-02T16:58:27.458Z,6.40
2018-11-02T17:00:55.573Z,5.63
2018-11-02T17:06:22.781Z,6.63
2018-11-02T17:08:52.477Z,5.40
2018-11-02T17:11:20.336Z,5.07
2018-11-02T17:16:46.877Z,4.43
2018-11-02T17:19:15.803Z,5.57
2018-11-02T17:21:44.723Z,5.20
2018-11-02T17:24:13.666Z,5.00
2018-11-02T17:26:41.642Z,4.87
2018-11-02T17:29:09.795Z,5.53
2018-11-02T17:31:37.672Z,4.80
2018-11-02T17:34:19.057Z,4.60
2018-11-02T17:36:46.951Z,4.37
2018-11-02T17:39:14.749Z,4.27
2018-11-02T17:41:52.796Z,4.40
2018-11-02T17:44:20.556Z,3.90
2018-11-02T17:46:48.657Z,4.20
2018-11-02T17:49:19.781Z,3.30
2018-11-02T17:51:48.385Z,3.93
2018-11-02T17:54:16.335Z,4.00
2018-11-02T17:56:44.599Z,3.47
2018-11-02T17:59:27.944Z,5.50
2018-11-02T18:02:20.092Z,3.97
2018-11-02T18:05:19.260Z,3.50
2018-11-02T18:07:47.191Z,4.10
2018-11-02T18:10:15.988Z,9.13
2018-11-02T18:15:24.898Z,8.43
2018-11-02T18:18:02.680Z,5.23
2018-11-02T18:20:32.018Z,5.03
2018-11-02T18:23:00.871Z,5.30
2018-11-02T18:25:30.437Z,4.77
2018-11-02T18:30:46.850Z,4.60
2018-11-02T18:33:15.047Z,4.30
2018-11-02T18:35:44.497Z,4.10
2018-11-02T18:38:17.020Z,3.90
2018-11-02T18:40:45.631Z,3.70
2018-11-02T18:43:14.240Z,3.80
2018-11-02T18:45:42.552Z,4.00
2018-11-02T18:48:20.736Z,4.80
2018-11-02T18:50:52.156Z,3.97
2018-11-02T18:53:21.081Z,4.73
2018-11-02T18:55:54.229Z,5.10
2018-11-02T18:58:24.978Z,4.50
2018-11-02T19:00:54.451Z,4.90
2018-11-02T19:03:23.453Z,5.57
2018-11-02T19:05:53.427Z,5.87
2018-11-02T19:08:22.752Z,5.23
2018-11-02T19:10:51.171Z,4.83
2018-11-02T19:13:19.666Z,5.60
2018-11-02T19:15:47.765Z,5.23
2018-11-02T19:18:16.648Z,6.10
2018-11-02T19:20:53.210Z,5.67
2018-11-02T19:23:21.886Z,5.73
2018-11-02T19:28:52.452Z,7.10
2018-11-02T19:34:04.597Z,7.37
2018-11-02T19:36:39.644Z,6.17
2018-11-02T19:42:13.136Z,6.90
2018-11-02T19:47:40.257Z,6.13
2018-11-02T19:50:29.781Z,6.40
2018-11-02T19:53:01.775Z,11.70
2018-11-02T19:55:31.240Z,17.87
2018-11-02T19:58:05.668Z,16.53
2018-11-02T20:00:38.790Z,8.87
2018-11-02T20:03:08.109Z,5.40
2018-11-02T20:05:38.516Z,6.27
2018-11-02T20:11:10.982Z,5.03
2018-11-02T20:16:55.602Z,5.10
2018-11-02T20:19:25.203Z,4.10
2018-11-02T20:24:52.755Z,4.70
2018-11-02T20:27:28.107Z,5.00
2018-11-02T20:29:56.212Z,4.00
2018-11-02T20:32:38.011Z,3.53
2018-11-02T20:35:07.391Z,3.63
2018-11-02T20:37:39.915Z,4.67
2018-11-02T20:40:21.708Z,3.73
2018-11-02T20:43:01.868Z,4.73
2018-11-02T20:45:30.417Z,3.77
2018-11-02T20:47:58.524Z,3.90
2018-11-02T20:50:26.521Z,4.00
2018-11-02T20:53:10.698Z,4.37
2018-11-02T20:58:41.344Z,4.43
2018-11-02T21:01:10.547Z,5.20
2018-11-02T21:03:39.202Z,4.20
2018-11-02T21:06:10.586Z,5.00
2018-11-02T21:08:41.277Z,4.43
2018-11-02T21:11:09.417Z,4.43
2018-11-02T21:13:39.867Z,4.30
2018-11-02T21:16:12.700Z,5.13
2018-11-02T21:18:41.085Z,4.50
2018-11-02T21:21:15.123Z,5.73
2018-11-02T21:23:46.948Z,5.80
2018-11-02T21:26:18.636Z,6.70
2018-11-02T21:28:49.966Z,5.93
2018-11-02T21:31:22.419Z,5.60
2018-11-02T21:33:51.860Z,5.27
2018-11-02T21:36:20.823Z,5.13
2018-11-02T21:38:48.682Z,4.77
2018-11-02T21:41:32.376Z,5.27
2018-11-02T21:44:00.286Z,4.73
2018-11-02T21:46:28.077Z,5.20
2018-11-02T21:48:56.565Z,4.10
2018-11-02T21:51:25.209Z,4.00
2018-11-02T21:54:07.649Z,4.03
2018-11-02T21:56:41.241Z,4.13
2018-11-02T21:59:16.441Z,4.43
2018-11-02T22:01:44.516Z,4.13
2018-11-02T22:04:15.466Z,4.30
2018-11-02T22:06:44.123Z,3.93
2018-11-02T22:09:13.551Z,5.30
2018-11-02T22:11:42.932Z,4.00
2018-11-02T22:14:14.434Z,4.70
2018-11-02T22:16:48.265Z,3.93
2018-11-02T22:19:17.843Z,5.63
2018-11-02T22:21:49.248Z,4.00
2018-11-02T22:24:17.563Z,4.53
2018-11-02T22:26:45.590Z,4.97
2018-11-02T22:29:17.314Z,5.00
2018-11-02T22:31:50.500Z,7.00
2018-11-02T22:34:18.853Z,6.07
2018-11-02T22:36:47.336Z,6.20
2018-11-02T22:39:15.297Z,6.20
2018-11-02T22:41:44.189Z,6.00
2018-11-02T22:44:13.182Z,5.73
2018-11-02T22:46:41.496Z,5.73
2018-11-02T22:49:09.359Z,5.40
2018-11-02T22:51:37.393Z,5.17
2018-11-02T22:54:06.999Z,4.90
2018-11-02T22:56:35.450Z,4.87
2018-11-02T22:59:03.424Z,4.80
2018-11-02T23:01:31.150Z,4.47
2018-11-02T23:04:00.803Z,5.80
2018-11-02T23:06:30.868Z,5.57
2018-11-02T23:09:01.824Z,4.70
2018-11-02T23:11:29.929Z,4.77
2018-11-02T23:13:58.464Z,4.10
2018-11-02T23:16:27.055Z,4.70
2018-11-02T23:18:54.879Z,4.20
2018-11-02T23:21:25.844Z,3.80
2018-11-02T23:23:53.908Z,3.80
2018-11-02T23:26:33.830Z,4.77
2018-11-02T23:32:07.640Z,4.30
2018-11-02T23:34:35.516Z,4.00
2018-11-02T23:37:03.266Z,4.40
2018-11-02T23:39:32.389Z,3.73
2018-11-02T23:42:00.144Z,4.17
2018-11-02T23:44:28.511Z,4.00
2018-11-02T23:46:56.575Z,3.47
2018-11-02T23:49:24.993Z,3.33
2018-11-02T23:51:53.355Z,3.80
2018-11-02T23:54:23.262Z,4.20
2018-11-02T23:56:52.722Z,3.93
2018-11-02T23:59:24.128Z,3.77
